Time;durP1;ratioP1;P1;durP2;ratioP2;P2;SDS_P1;SDS_P2;PMS_P1;PMS_P2;Temp;Humidity;BMP_temperature;BMP_pressure;BME280_temperature;BME280_humidity;BME280_pressure;Samples;Min_cycle;Max_cycle;Signal;HPM_P1;HPM_P2
2021/09/18 00:02:11;;;;;;;1.05;0.77;;;;;;;13.23;90.91;100624.06;5046490;28;20507;-67
2021/09/18 00:04:38;;;;;;;1.70;0.80;;;;;;;13.17;91.14;100628.78;5049816;28;20061;-67
2021/09/18 00:07:06;;;;;;;0.90;0.70;;;;;;;13.16;91.82;100624.47;5055396;28;20053;-67
2021/09/18 00:09:33;;;;;;;1.88;0.85;;;;;;;13.13;92.23;100626.47;5028979;28;20061;-67
2021/09/18 00:12:00;;;;;;;1.85;1.02;;;;;;;13.12;92.32;100620.34;5054532;28;20511;-67
2021/09/18 00:14:27;;;;;;;1.25;0.82;;;;;;;13.21;92.07;100621.50;5050894;28;20463;-66
2021/09/18 00:16:54;;;;;;;0.90;0.63;;;;;;;13.16;92.29;100628.91;5049038;28;20053;-66
2021/09/18 00:19:21;;;;;;;2.47;0.90;;;;;;;13.21;92.14;100625.94;5052307;28;20586;-67
2021/09/18 00:21:49;;;;;;;1.75;0.73;;;;;;;13.15;92.56;100614.84;5044158;28;20053;-66
2021/09/18 00:24:16;;;;;;;1.70;0.90;;;;;;;13.25;92.48;100624.81;5039794;28;20102;-66
2021/09/18 00:26:43;;;;;;;1.38;0.80;;;;;;;13.12;93.22;100628.25;5042206;28;20619;-66
2021/09/18 00:29:10;;;;;;;5.88;3.55;;;;;;;13.24;92.70;100617.81;5049447;28;20525;-67
2021/09/18 00:31:37;;;;;;;1.88;1.00;;;;;;;13.31;92.38;100621.72;5047472;28;20514;-68
2021/09/18 00:34:05;;;;;;;1.73;1.15;;;;;;;13.26;91.97;100623.84;5052756;28;20139;-66
2021/09/18 00:36:32;;;;;;;2.15;0.88;;;;;;;13.25;92.78;100628.28;5032202;28;20053;-68
2021/09/18 00:38:59;;;;;;;2.28;1.10;;;;;;;13.14;93.08;100626.34;5049191;28;20532;-66
2021/09/18 00:41:27;;;;;;;2.83;0.90;;;;;;;12.83;95.19;100635.56;5059548;28;20045;-66
2021/09/18 00:43:57;;;;;;;4.40;0.65;;;;;;;12.99;95.39;100635.34;5049492;28;20108;-67
2021/09/18 00:46:24;;;;;;;1.10;0.90;;;;;;;13.01;94.72;100635.22;5050306;28;20136;-66
2021/09/18 00:48:52;;;;;;;5.45;1.00;;;;;;;13.08;94.11;100641.78;5047844;28;20131;-66
2021/09/18 00:51:19;;;;;;;3.22;1.10;;;;;;;12.96;94.88;100635.53;5046913;28;20045;-67
2021/09/18 00:53:47;;;;;;;1.33;0.90;;;;;;;13.16;94.54;100634.19;5046390;28;20037;-65
2021/09/18 00:56:16;;;;;;;5.38;1.10;;;;;;;13.00;95.18;100644.97;5030559;28;20061;-67
2021/09/18 00:58:43;;;;;;;1.30;0.80;;;;;;;13.06;95.54;100633.13;5048362;28;20124;-66
2021/09/18 01:01:10;;;;;;;2.85;1.05;;;;;;;13.17;94.53;100628.78;5050738;28;20128;-66
2021/09/18 01:03:37;;;;;;;4.93;1.17;;;;;;;13.13;94.68;100629.94;5040428;28;20103;-64
2021/09/18 01:06:05;;;;;;;1.48;0.90;;;;;;;13.10;95.21;100635.47;5048223;28;20423;-66
2021/09/18 01:08:32;;;;;;;3.50;0.95;;;;;;;13.10;95.47;100631.94;5027488;28;20184;-67
2021/09/18 01:11:00;;;;;;;2.00;1.00;;;;;;;13.08;95.55;100633.88;5048381;28;20132;-67
2021/09/18 01:13:27;;;;;;;3.67;1.02;;;;;;;13.00;96.00;100639.66;5065120;28;20048;-67
2021/09/18 01:15:57;;;;;;;2.75;1.15;;;;;;;13.00;96.33;100638.81;5063018;28;20056;-66
2021/09/18 01:18:24;;;;;;;2.25;1.02;;;;;;;13.00;96.33;100633.53;5029056;28;20478;-67
2021/09/18 01:20:51;;;;;;;2.72;1.40;;;;;;;12.80;97.23;100632.28;5048640;28;20470;-66
2021/09/18 01:23:20;;;;;;;5.13;1.30;;;;;;;12.74;98.42;100628.22;5047981;28;20044;-63
2021/09/18 01:25:48;;;;;;;2.35;1.10;;;;;;;12.90;97.20;100626.25;5047322;28;20040;-63
2021/09/18 01:28:16;;;;;;;3.08;1.00;;;;;;;13.03;96.86;100620.97;5029692;28;20069;-69
2021/09/18 01:30:44;;;;;;;2.05;1.30;;;;;;;12.86;97.51;100627.41;5036467;28;20522;-66
2021/09/18 01:33:11;;;;;;;7.78;2.28;;;;;;;12.95;97.40;100620.66;5038385;28;20134;-66
2021/09/18 01:35:40;;;;;;;2.92;1.05;;;;;;;12.88;97.24;100629.97;5031802;28;20037;-67
2021/09/18 01:38:07;;;;;;;3.75;1.48;;;;;;;12.67;98.46;100632.25;5013667;28;20382;-67
2021/09/18 01:40:37;;;;;;;3.10;1.55;;;;;;;12.74;98.73;100633.53;5012423;28;20063;-67
2021/09/18 01:43:05;;;;;;;4.07;1.20;;;;;;;12.89;97.61;100634.28;5021081;28;20136;-66
2021/09/18 01:45:33;;;;;;;3.63;1.75;;;;;;;12.87;98.03;100625.59;5022741;28;20507;-66
2021/09/18 01:48:03;;;;;;;3.03;2.25;;;;;;;12.82;97.99;100628.56;5018668;28;20045;-67
2021/09/18 01:50:35;;;;;;;3.53;1.30;;;;;;;13.05;96.95;100620.84;5059590;28;20053;-66
2021/09/18 01:53:05;;;;;;;1.05;0.82;;;;;;;12.93;97.52;100623.41;5046370;28;20056;-65
2021/09/18 01:55:32;;;;;;;4.25;1.13;;;;;;;12.76;98.69;100623.72;5045754;28;20049;-67
2021/09/18 01:58:00;;;;;;;3.72;1.23;;;;;;;12.88;98.61;100624.69;5038324;28;20044;-67
2021/09/18 02:00:28;;;;;;;2.60;1.48;;;;;;;13.00;97.41;100626.47;5032877;28;20049;-65
2021/09/18 02:02:55;;;;;;;3.40;1.45;;;;;;;12.98;97.49;100628.38;5053027;28;20057;-66
2021/09/18 02:05:25;;;;;;;5.55;1.45;;;;;;;12.96;97.15;100622.34;5047406;28;20482;-66
2021/09/18 02:07:53;;;;;;;4.63;1.27;;;;;;;12.80;98.24;100625.19;5048998;28;20053;-68
2021/09/18 02:10:23;;;;;;;1.90;1.20;;;;;;;12.93;98.28;100628.69;5027246;28;20442;-67
2021/09/18 02:12:50;;;;;;;4.47;1.15;;;;;;;12.82;98.15;100625.09;5053796;28;20048;-67
2021/09/18 02:15:19;;;;;;;3.63;0.93;;;;;;;12.62;100.00;100631.72;5056262;28;20048;-66
2021/09/18 02:17:47;;;;;;;4.32;1.48;;;;;;;12.87;99.01;100628.25;5058697;28;20080;-66
2021/09/18 02:20:18;;;;;;;3.00;1.17;;;;;;;12.96;99.03;100630.25;5051062;28;20052;-67
2021/09/18 02:22:46;;;;;;;3.45;1.10;;;;;;;13.07;97.70;100621.59;5065756;28;20600;-65
2021/09/18 02:25:14;;;;;;;3.38;1.58;;;;;;;13.03;97.71;100614.84;5056876;28;20055;-66
2021/09/18 02:27:41;;;;;;;2.85;1.33;;;;;;;13.02;97.53;100621.94;5067041;28;20049;-65
2021/09/18 02:30:12;;;;;;;6.07;1.65;;;;;;;13.05;97.49;100611.13;5051175;28;20050;-67
2021/09/18 02:32:39;;;;;;;2.28;1.42;;;;;;;12.81;99.58;100616.31;5049950;28;20110;-67
2021/09/18 02:35:10;;;;;;;3.25;1.35;;;;;;;12.79;100.00;100620.00;5068369;28;20053;-67
2021/09/18 02:37:38;;;;;;;4.55;1.40;;;;;;;13.01;99.05;100611.44;5067118;28;20478;-67
2021/09/18 02:40:07;;;;;;;4.47;1.85;;;;;;;13.09;97.97;100611.75;5066035;28;20060;-67
2021/09/18 02:42:36;;;;;;;3.60;1.27;;;;;;;13.04;98.84;100601.50;5070127;28;20123;-65
2021/09/18 02:45:05;;;;;;;2.15;1.15;;;;;;;13.10;98.27;100616.97;5053781;28;20052;-65
2021/09/18 02:47:33;;;;;;;5.32;1.50;;;;;;;13.24;97.16;100615.16;5063605;28;20128;-66
2021/09/18 02:50:01;;;;;;;3.15;1.45;;;;;;;13.10;98.50;100611.69;5024466;28;20132;-67
2021/09/18 02:52:28;;;;;;;2.67;1.20;;;;;;;13.01;98.89;100607.00;5052984;28;20474;-67
2021/09/18 02:54:55;;;;;;;1.60;1.10;;;;;;;12.86;100.00;100608.06;5067727;28;20086;-67
2021/09/18 02:57:22;;;;;;;2.63;1.23;;;;;;;12.92;100.00;100611.16;5054196;28;20131;-67
2021/09/18 02:59:49;;;;;;;2.97;1.30;;;;;;;13.06;99.38;100612.84;5052919;28;20040;-66
2021/09/18 03:02:16;;;;;;;1.98;1.50;;;;;;;13.03;99.08;100610.41;5070983;28;20057;-66
2021/09/18 03:04:44;;;;;;;4.18;1.38;;;;;;;13.11;99.20;100613.38;5060485;28;20037;-66
2021/09/18 03:07:14;;;;;;;3.53;1.17;;;;;;;13.07;99.23;100605.75;5066649;23;20452;-77
2021/09/18 03:09:44;;;;;;;4.28;1.50;;;;;;;13.02;100.00;100605.22;5042868;28;20025;-77
2021/09/18 03:12:13;;;;;;;3.70;1.55;;;;;;;13.04;99.32;100606.81;5018261;28;20061;-78
2021/09/18 03:14:41;;;;;;;2.17;1.20;;;;;;;13.06;99.68;100606.72;5023220;28;20045;-78
2021/09/18 03:17:08;;;;;;;1.90;1.17;;;;;;;13.03;100.00;100605.13;5026524;28;20045;-78
2021/09/18 03:19:36;;;;;;;2.70;1.70;;;;;;;12.85;100.00;100609.03;5040927;28;20049;-78
2021/09/18 03:22:03;;;;;;;2.17;1.50;;;;;;;12.82;100.00;100609.22;5034996;28;20052;-78
2021/09/18 03:24:30;;;;;;;4.47;1.40;;;;;;;12.75;100.00;100611.47;5034403;28;20145;-78
2021/09/18 03:26:58;;;;;;;5.82;1.60;;;;;;;12.70;100.00;100608.28;5051519;28;20069;-77
2021/09/18 03:29:26;;;;;;;2.63;1.20;;;;;;;12.88;100.00;100611.47;5021071;28;20072;-76
2021/09/18 03:31:54;;;;;;;6.88;2.08;;;;;;;12.75;100.00;100600.91;5042918;28;20076;-78
2021/09/18 03:34:22;;;;;;;6.13;1.92;;;;;;;12.97;100.00;100599.41;5035596;28;20079;-76
2021/09/18 03:36:49;;;;;;;3.90;1.23;;;;;;;12.95;100.00;100596.03;5045230;28;20080;-77
2021/09/18 03:39:16;;;;;;;2.15;1.10;;;;;;;13.02;100.00;100603.44;5043316;28;20139;-78
2021/09/18 03:41:44;;;;;;;5.93;1.70;;;;;;;12.95;100.00;100604.78;5062797;28;20199;-77
2021/09/18 03:44:11;;;;;;;3.60;1.83;;;;;;;12.95;100.00;100604.78;5018770;28;20073;-78
2021/09/18 03:46:38;;;;;;;3.58;1.30;;;;;;;13.08;100.00;100603.00;5041697;28;20113;-77
2021/09/18 03:49:06;;;;;;;2.38;1.42;;;;;;;12.98;100.00;100604.59;5016407;28;20184;-76
2021/09/18 03:51:33;;;;;;;4.30;1.40;;;;;;;13.08;100.00;100604.78;5041297;28;20049;-77
2021/09/18 03:54:00;;;;;;;3.58;1.38;;;;;;;13.06;100.00;100599.63;5055605;28;20041;-76
2021/09/18 03:56:27;;;;;;;4.38;1.60;;;;;;;12.97;100.00;100602.03;5052541;28;20096;-79
2021/09/18 03:58:54;;;;;;;4.20;1.65;;;;;;;13.00;100.00;100600.03;5058480;28;20394;-76
2021/09/18 04:01:22;;;;;;;3.13;1.50;;;;;;;13.01;100.00;100604.34;5066027;23;20076;-65
2021/09/18 04:03:49;;;;;;;1.80;1.50;;;;;;;12.89;100.00;100600.78;5069711;28;20055;-66
2021/09/18 04:06:17;;;;;;;2.60;1.48;;;;;;;12.91;100.00;100606.78;5071185;28;20499;-65
2021/09/18 04:08:45;;;;;;;3.78;1.75;;;;;;;12.92;100.00;100600.59;5068884;28;20085;-66
2021/09/18 04:11:12;;;;;;;4.57;1.70;;;;;;;12.75;100.00;100606.19;5065144;28;20063;-66
2021/09/18 04:13:39;;;;;;;5.45;1.85;;;;;;;12.70;100.00;100599.50;5067664;28;20054;-66
2021/09/18 04:16:06;;;;;;;5.80;2.28;;;;;;;12.76;100.00;100596.44;5059682;28;20534;-67
2021/09/18 04:18:34;;;;;;;3.22;1.67;;;;;;;12.81;100.00;100596.97;5067713;28;20135;-66
2021/09/18 04:21:01;;;;;;;3.05;1.95;;;;;;;12.67;100.00;100593.47;5077085;28;20059;-65
2021/09/18 04:23:30;;;;;;;5.18;1.90;;;;;;;12.81;100.00;100587.25;5047896;28;20056;-66
2021/09/18 04:25:57;;;;;;;5.53;2.05;;;;;;;12.91;100.00;100590.94;5068996;28;20083;-67
2021/09/18 04:28:24;;;;;;;4.65;2.20;;;;;;;12.94;100.00;100595.19;5077836;28;20052;-65
2021/09/18 04:30:52;;;;;;;4.28;1.98;;;;;;;12.95;100.00;100590.75;5064175;28;20403;-66
2021/09/18 04:33:19;;;;;;;4.00;2.03;;;;;;;12.89;100.00;100592.03;5070319;28;21482;-65
2021/09/18 04:35:46;;;;;;;5.97;1.98;;;;;;;12.91;100.00;100595.38;5069716;28;20044;-66
2021/09/18 04:38:13;;;;;;;5.40;2.50;;;;;;;12.89;100.00;100590.22;5081151;28;20517;-67
2021/09/18 04:40:40;;;;;;;3.95;2.13;;;;;;;12.84;100.00;100594.13;5068284;28;20565;-65
2021/09/18 04:43:08;;;;;;;4.75;2.58;;;;;;;12.82;100.00;100581.00;5074797;28;20075;-66
2021/09/18 04:45:35;;;;;;;7.50;3.17;;;;;;;12.73;100.00;100597.50;5058938;28;20118;-66
2021/09/18 04:48:02;;;;;;;4.57;2.83;;;;;;;12.77;100.00;100593.69;5079645;28;20048;-67
2021/09/18 04:50:29;;;;;;;5.40;2.70;;;;;;;12.90;100.00;100591.06;5063510;28;20078;-65
2021/09/18 04:52:57;;;;;;;6.30;3.20;;;;;;;12.84;100.00;100591.50;5061914;28;20854;-66
2021/09/18 04:55:24;;;;;;;6.10;3.53;;;;;;;12.85;100.00;100601.09;5062726;28;20131;-66
2021/09/18 04:57:51;;;;;;;5.22;3.53;;;;;;;12.92;100.00;100602.34;5070907;28;20102;-65
2021/09/18 05:00:18;;;;;;;6.45;3.72;;;;;;;12.84;100.00;100605.53;5070446;28;20140;-66
2021/09/18 05:02:45;;;;;;;6.03;3.05;;;;;;;12.90;100.00;100605.13;5082518;28;20131;-66
2021/09/18 05:05:13;;;;;;;5.45;3.60;;;;;;;12.77;100.00;100614.00;5063990;28;20059;-66
2021/09/18 05:07:40;;;;;;;5.20;3.30;;;;;;;12.88;100.00;100609.66;5067506;28;20530;-66
2021/09/18 05:10:08;;;;;;;4.85;3.45;;;;;;;12.80;100.00;100608.50;5065517;28;20052;-64
2021/09/18 05:12:35;;;;;;;7.82;3.92;;;;;;;12.77;100.00;100608.69;5071417;28;20060;-66
2021/09/18 05:15:05;;;;;;;6.22;3.47;;;;;;;12.90;100.00;100614.84;5052242;28;20056;-66
2021/09/18 05:17:32;;;;;;;6.03;3.67;;;;;;;12.87;100.00;100613.25;5036237;28;20139;-65
2021/09/18 05:19:59;;;;;;;5.32;3.80;;;;;;;12.82;100.00;100609.22;5065824;28;20062;-65
2021/09/18 05:22:27;;;;;;;5.15;3.55;;;;;;;12.88;100.00;100616.75;5077643;28;20350;-66
2021/09/18 05:24:54;;;;;;;7.57;4.45;;;;;;;12.78;100.00;100616.50;5063420;28;20044;-66
2021/09/18 05:27:22;;;;;;;7.00;3.75;;;;;;;12.84;100.00;100621.41;5054757;28;20526;-66
2021/09/18 05:29:49;;;;;;;8.15;3.85;;;;;;;12.76;100.00;100621.06;5041583;28;20063;-65
2021/09/18 05:32:16;;;;;;;9.18;5.07;;;;;;;12.88;100.00;100627.31;5064557;28;20146;-66
2021/09/18 05:34:43;;;;;;;5.90;4.07;;;;;;;12.93;100.00;100626.06;5075150;28;20503;-66
2021/09/18 05:37:11;;;;;;;5.93;4.03;;;;;;;12.72;100.00;100642.50;5045962;28;20094;-67
2021/09/18 05:39:38;;;;;;;8.55;3.90;;;;;;;12.54;100.00;100636.66;5061066;28;20526;-66
2021/09/18 05:42:08;;;;;;;7.72;4.43;;;;;;;12.77;100.00;100635.97;5068718;28;20080;-65
2021/09/18 05:44:36;;;;;;;5.95;4.03;;;;;;;12.79;100.00;100639.38;5060879;28;20061;-67
2021/09/18 05:47:04;;;;;;;8.70;5.13;;;;;;;12.75;100.00;100637.88;5044777;28;20090;-65
2021/09/18 05:49:31;;;;;;;8.80;4.55;;;;;;;12.68;100.00;100639.22;5068120;28;20056;-66
2021/09/18 05:51:58;;;;;;;11.32;4.75;;;;;;;12.43;100.00;100637.41;5084660;28;20549;-66
2021/09/18 05:54:27;;;;;;;5.40;4.45;;;;;;;12.54;100.00;100639.31;5066371;28;20142;-65
2021/09/18 05:56:54;;;;;;;5.88;4.60;;;;;;;12.47;100.00;100641.50;5072716;28;20399;-66
2021/09/18 05:59:22;;;;;;;4.82;3.85;;;;;;;12.52;100.00;100639.44;5065229;28;20193;-65
2021/09/18 06:01:49;;;;;;;6.07;4.32;;;;;;;12.68;100.00;100644.50;5061678;28;20537;-66
2021/09/18 06:04:18;;;;;;;5.00;3.38;;;;;;;12.73;100.00;100644.19;5069029;28;20494;-66
2021/09/18 06:07:04;;;;;;;6.40;3.53;;;;;;;12.68;100.00;100647.16;5059655;28;20202;-67
2021/09/18 06:09:50;;;;;;;5.53;3.67;;;;;;;12.77;100.00;100649.16;5063050;28;20064;-65
2021/09/18 06:12:36;;;;;;;5.82;3.95;;;;;;;12.85;100.00;100646.84;5083392;28;20253;-66
2021/09/18 06:15:05;;;;;;;9.65;4.03;;;;;;;12.86;100.00;100647.69;5073043;28;20054;-64
2021/09/18 06:17:35;;;;;;;6.75;4.03;;;;;;;12.91;100.00;100654.34;5071039;28;20056;-65
2021/09/18 06:20:03;;;;;;;7.43;3.72;;;;;;;12.90;100.00;100647.38;5055667;28;20115;-66
2021/09/18 06:22:30;;;;;;;5.55;4.10;;;;;;;12.78;100.00;100650.84;5063231;28;20144;-66
2021/09/18 06:24:58;;;;;;;6.82;4.55;;;;;;;12.90;100.00;100652.69;5059745;28;20036;-65
2021/09/18 06:27:25;;;;;;;5.82;3.85;;;;;;;12.92;100.00;100653.44;5068925;28;20061;-66
2021/09/18 06:29:52;;;;;;;6.85;3.92;;;;;;;13.00;100.00;100655.53;5060116;28;20402;-64
2021/09/18 06:32:19;;;;;;;8.82;4.40;;;;;;;12.97;100.00;100665.44;5050677;28;20060;-65
2021/09/18 06:34:46;;;;;;;8.43;4.57;;;;;;;12.96;100.00;100664.63;5052469;28;20402;-65
2021/09/18 06:37:15;;;;;;;6.88;4.07;;;;;;;13.09;100.00;100662.81;5058977;28;20048;-65
2021/09/18 06:39:42;;;;;;;9.45;5.47;;;;;;;13.19;100.00;100663.03;5068448;28;20062;-67
2021/09/18 06:42:12;;;;;;;7.65;4.65;;;;;;;13.00;100.00;100671.38;5057244;28;20053;-66
2021/09/18 06:44:41;;;;;;;7.80;4.38;;;;;;;13.10;100.00;100669.81;5064228;28;20144;-65
2021/09/18 06:47:08;;;;;;;12.00;4.28;;;;;;;13.40;100.00;100666.88;5038985;28;20189;-65
2021/09/18 06:49:35;;;;;;;9.38;4.28;;;;;;;13.50;100.00;100668.84;5058322;28;20084;-66
2021/09/18 06:52:04;;;;;;;9.23;4.70;;;;;;;13.37;100.00;100669.75;5065614;28;20044;-65
2021/09/18 06:54:31;;;;;;;6.38;5.50;;;;;;;13.37;100.00;100669.75;5067616;28;20462;-64
2021/09/18 06:56:59;;;;;;;7.22;4.72;;;;;;;13.45;100.00;100671.84;5066963;28;20045;-65
2021/09/18 06:59:26;;;;;;;7.38;5.13;;;;;;;13.30;100.00;100675.56;5065260;28;20056;-65
2021/09/18 07:01:53;;;;;;;7.55;5.05;;;;;;;13.47;100.00;100679.69;5070696;28;20064;-66
2021/09/18 07:04:20;;;;;;;9.40;5.10;;;;;;;13.79;100.00;100678.25;5049595;28;20064;-66
2021/09/18 07:06:48;;;;;;;11.82;5.00;;;;;;;14.02;100.00;100679.22;5060912;28;20131;-65
2021/09/18 07:09:15;;;;;;;14.90;5.65;;;;;;;14.16;100.00;100684.34;5051671;28;20056;-66
2021/09/18 07:11:42;;;;;;;7.20;5.68;;;;;;;14.02;100.00;100686.31;5075522;28;20063;-67
2021/09/18 07:14:09;;;;;;;12.63;6.43;;;;;;;14.07;100.00;100687.69;5046281;28;20458;-65
2021/09/18 07:16:36;;;;;;;8.43;5.50;;;;;;;14.00;100.00;100685.56;5061260;28;20041;-66
2021/09/18 07:19:03;;;;;;;10.98;6.70;;;;;;;13.90;100.00;100686.25;5037177;28;20390;-65
2021/09/18 07:21:31;;;;;;;9.48;6.97;;;;;;;13.99;100.00;100690.03;5070833;28;20057;-66
2021/09/18 07:23:58;;;;;;;13.43;7.85;;;;;;;13.91;100.00;100690.59;5066122;28;20143;-66
2021/09/18 07:26:25;;;;;;;9.55;7.60;;;;;;;14.13;100.00;100700.47;5063031;28;20052;-67
2021/09/18 07:28:52;;;;;;;16.13;6.93;;;;;;;14.29;100.00;100697.56;5048481;28;20418;-66
2021/09/18 07:31:19;;;;;;;9.95;6.82;;;;;;;14.49;100.00;100697.91;5060086;28;20427;-65
2021/09/18 07:33:47;;;;;;;11.77;6.93;;;;;;;14.63;100.00;100700.38;5062833;28;20077;-66
2021/09/18 07:36:15;;;;;;;20.50;8.07;;;;;;;14.84;100.00;100703.22;5065763;28;20049;-65
2021/09/18 07:38:42;;;;;;;12.38;7.35;;;;;;;14.68;100.00;100700.91;5051361;28;20151;-67
2021/09/18 07:41:09;;;;;;;15.90;8.35;;;;;;;14.52;100.00;100698.53;5049886;28;20048;-65
2021/09/18 07:43:37;;;;;;;32.42;10.27;;;;;;;14.60;100.00;100706.75;5072509;28;20471;-66
2021/09/18 07:46:04;;;;;;;42.40;10.60;;;;;;;14.72;100.00;100709.44;5052179;28;20132;-67
2021/09/18 07:48:31;;;;;;;31.60;8.23;;;;;;;14.76;100.00;100705.59;5065052;28;20060;-68
2021/09/18 07:50:59;;;;;;;14.27;6.93;;;;;;;15.09;100.00;100711.03;5066824;28;20144;-65
2021/09/18 07:53:27;;;;;;;10.07;5.78;;;;;;;15.62;100.00;100700.69;5045916;28;20190;-67
2021/09/18 07:55:54;;;;;;;9.48;5.75;;;;;;;15.99;100.00;100711.09;5066205;28;20041;-66
2021/09/18 07:58:21;;;;;;;9.65;5.05;;;;;;;16.12;100.00;100711.78;5054969;28;20068;-65
2021/09/18 08:00:48;;;;;;;8.35;4.53;;;;;;;16.00;100.00;100714.56;5063181;28;20052;-67
2021/09/18 08:03:15;;;;;;;5.50;2.97;;;;;;;16.42;100.00;100716.38;5068520;28;20132;-66
2021/09/18 08:05:43;;;;;;;5.70;3.00;;;;;;;16.49;100.00;100716.75;5062430;28;20052;-67
2021/09/18 08:08:10;;;;;;;4.78;3.20;;;;;;;16.53;100.00;100714.69;5059069;28;20124;-66
2021/09/18 08:10:37;;;;;;;5.45;2.60;;;;;;;16.41;100.00;100705.91;5061466;28;20049;-67
2021/09/18 08:13:05;;;;;;;3.30;2.20;;;;;;;16.29;100.00;100720.19;5069104;28;20063;-66
2021/09/18 08:15:32;;;;;;;4.50;2.00;;;;;;;16.60;99.42;100715.84;5060286;28;20048;-65
2021/09/18 08:17:59;;;;;;;3.92;1.90;;;;;;;16.67;98.97;100719.69;5067440;28;20048;-66
2021/09/18 08:20:27;;;;;;;4.55;2.13;;;;;;;17.60;94.21;100713.59;5053366;28;20466;-65
2021/09/18 08:22:54;;;;;;;4.20;1.67;;;;;;;18.02;89.22;100711.69;5054313;28;20080;-65
2021/09/18 08:25:21;;;;;;;3.70;1.75;;;;;;;18.67;85.99;100720.88;5052358;28;20100;-67
2021/09/18 08:27:48;;;;;;;2.70;1.25;;;;;;;19.08;83.33;100716.25;5068557;28;20048;-67
2021/09/18 08:30:16;;;;;;;2.33;1.02;;;;;;;19.51;80.39;100719.38;5063659;28;20075;-66
2021/09/18 08:32:43;;;;;;;2.72;1.17;;;;;;;19.06;81.71;100720.88;5066091;28;20055;-65
2021/09/18 08:35:11;;;;;;;3.50;1.10;;;;;;;18.95;81.95;100718.34;5060827;28;20083;-67
2021/09/18 08:37:38;;;;;;;3.47;1.10;;;;;;;18.70;82.88;100720.63;5064827;28;20144;-65
2021/09/18 08:40:07;;;;;;;5.05;1.02;;;;;;;18.12;85.55;100723.19;5066149;28;20394;-66
2021/09/18 08:42:38;;;;;;;1.55;0.90;;;;;;;17.90;86.42;100721.59;5062758;28;20395;-65
2021/09/18 08:45:06;;;;;;;2.92;0.95;;;;;;;17.56;87.54;100722.81;5047608;28;20147;-67
2021/09/18 08:47:34;;;;;;;0.68;0.57;;;;;;;17.95;85.60;100727.34;5044063;28;20041;-65
2021/09/18 08:50:04;;;;;;;2.38;0.95;;;;;;;18.60;81.78;100730.44;5070492;28;20036;-65
2021/09/18 08:52:31;;;;;;;2.97;1.00;;;;;;;19.15;78.38;100735.19;5046304;28;20053;-64
2021/09/18 08:55:01;;;;;;;4.95;0.60;;;;;;;18.88;78.36;100733.28;5066152;28;20434;-65
2021/09/18 08:57:28;;;;;;;1.17;0.45;;;;;;;19.05;78.21;100735.22;5064059;28;20137;-65
2021/09/18 08:59:55;;;;;;;2.53;0.85;;;;;;;19.38;77.01;100739.22;5051215;28;20529;-65
2021/09/18 09:02:26;;;;;;;1.38;0.50;;;;;;;18.93;77.59;100731.84;5034804;28;20139;-66
2021/09/18 09:05:09;;;;;;;4.82;0.70;;;;;;;18.41;81.19;100727.72;5065631;28;20059;-65
2021/09/18 09:07:36;;;;;;;2.15;0.80;;;;;;;18.51;80.60;100733.94;5045062;28;20061;-67
2021/09/18 09:10:06;;;;;;;1.23;0.77;;;;;;;18.21;81.97;100735.69;5055867;28;20506;-66
2021/09/18 09:12:35;;;;;;;3.15;0.88;;;;;;;18.12;83.48;100736.53;5069215;28;20071;-65
2021/09/18 09:15:06;;;;;;;3.58;0.80;;;;;;;18.62;80.88;100735.63;5052862;28;20052;-66
2021/09/18 09:17:36;;;;;;;1.30;0.68;;;;;;;18.45;82.15;100743.31;5065857;28;20059;-65
2021/09/18 09:20:05;;;;;;;1.30;0.52;;;;;;;18.20;84.05;100744.69;5062372;28;20072;-66
2021/09/18 09:22:37;;;;;;;1.00;0.60;;;;;;;17.37;90.44;100745.69;5062974;28;20052;-66
2021/09/18 09:25:06;;;;;;;1.85;0.50;;;;;;;16.95;92.46;100755.50;5062184;28;20055;-65
2021/09/18 09:27:33;;;;;;;1.40;0.60;;;;;;;17.26;91.07;100750.25;5063673;28;20048;-66
2021/09/18 09:30:01;;;;;;;2.47;0.60;;;;;;;17.08;91.64;100760.63;5072645;28;20051;-66
2021/09/18 09:32:35;;;;;;;3.60;0.77;;;;;;;16.76;94.16;100752.69;5071100;28;20063;-67
2021/09/18 09:35:07;;;;;;;0.90;0.70;;;;;;;16.74;94.21;100750.13;5043260;28;20139;-66
2021/09/18 09:37:34;;;;;;;1.27;0.63;;;;;;;16.96;93.14;100754.53;5068386;28;20215;-65
2021/09/18 09:40:06;;;;;;;1.92;0.70;;;;;;;16.62;95.63;100762.63;5052235;28;20538;-65
2021/09/18 09:42:35;;;;;;;2.63;0.70;;;;;;;16.31;97.58;100761.59;5066828;28;20139;-66
2021/09/18 09:45:19;;;;;;;1.60;0.65;;;;;;;16.25;99.23;100764.72;5054246;28;20056;-66
2021/09/18 09:48:00;;;;;;;0.80;0.55;;;;;;;16.54;98.65;100762.38;5063457;28;20060;-66
2021/09/18 09:50:28;;;;;;;1.67;0.60;;;;;;;16.36;98.22;100770.03;5058669;28;20060;-66
2021/09/18 09:52:56;;;;;;;1.40;0.70;;;;;;;16.45;98.79;100779.09;5049363;28;20056;-65
2021/09/18 09:55:24;;;;;;;0.90;0.47;;;;;;;16.36;98.72;100766.53;5041651;28;20191;-65
2021/09/18 09:57:59;;;;;;;3.13;0.75;;;;;;;16.95;96.35;100774.13;5068360;28;20583;-65
2021/09/18 10:00:42;;;;;;;;;;;;;;;17.31;94.28;100766.66;5058763;28;20234;-68
2021/09/18 10:03:10;;;;;;;1.63;0.75;;;;;;;18.37;87.44;100766.28;5073108;28;19974;-65
2021/09/18 10:05:37;;;;;;;1.67;0.63;;;;;;;18.89;82.73;100766.97;5051838;28;20041;-67
2021/09/18 10:08:05;;;;;;;3.55;0.70;;;;;;;19.07;80.00;100773.25;5039498;28;20053;-66
2021/09/18 10:10:33;;;;;;;1.83;0.88;;;;;;;18.46;77.32;100776.13;5062163;28;20071;-65
2021/09/18 10:13:01;;;;;;;1.52;0.63;;;;;;;18.23;74.25;100781.69;5074923;28;20086;-66
2021/09/18 10:15:29;;;;;;;2.25;0.50;;;;;;;18.14;74.43;100779.00;5091967;22;20421;-67
2021/09/18 10:17:59;;;;;;;2.15;0.55;;;;;;;18.31;74.47;100781.03;5064783;28;20215;-69
2021/09/18 10:25:44;;;;;;;3.58;0.60;;;;;;;18.05;74.96;100785.97;5060539;28;20135;-69
2021/09/18 10:28:14;;;;;;;1.48;0.60;;;;;;;18.55;73.50;100775.34;5064592;28;20406;-69
2021/09/18 10:30:53;;;;;;;1.48;0.47;;;;;;;18.41;73.57;100781.03;5073544;28;20074;-69
2021/09/18 10:33:49;;;;;;;2.63;0.50;;;;;;;18.41;73.73;100779.22;5064373;28;20052;-68
2021/09/18 10:36:21;;;;;;;0.75;0.40;;;;;;;18.63;72.77;100783.47;5067290;28;20058;-68
2021/09/18 10:39:02;;;;;;;9.07;3.35;;;;;;;18.45;74.41;100790.44;5074679;28;20158;-68
2021/09/18 10:41:40;;;;;;;1.90;0.60;;;;;;;17.79;74.77;100782.94;5046328;28;20080;-68
2021/09/18 10:44:08;;;;;;;0.90;0.50;;;;;;;18.15;73.96;100788.72;5065245;28;20456;-68
2021/09/18 10:46:40;;;;;;;1.48;0.40;;;;;;;18.10;74.18;100781.13;5060964;28;20522;-68
2021/09/18 10:49:34;;;;;;;1.58;0.30;;;;;;;18.53;72.19;100793.28;5061521;28;20341;-67
2021/09/18 10:52:17;;;;;;;2.03;0.40;;;;;;;18.64;72.81;100789.63;5068042;28;20076;-68
2021/09/18 10:55:05;;;;;;;1.98;0.50;;;;;;;18.39;72.41;100785.69;5073556;28;20134;-67
2021/09/18 10:57:35;;;;;;;0.85;0.40;;;;;;;18.20;72.93;100787.31;5068515;28;20047;-69
2021/09/18 11:00:07;;;;;;;0.22;0.22;;;;;;;18.00;74.34;100801.53;5061983;28;20056;-68
2021/09/18 11:02:34;;;;;;;1.15;0.50;;;;;;;17.46;76.13;100803.44;5079855;28;20060;-66
2021/09/18 11:05:06;;;;;;;4.43;0.60;;;;;;;17.06;80.50;100803.31;5052291;28;20060;-66
2021/09/18 11:07:40;;;;;;;2.30;0.40;;;;;;;17.09;82.59;100811.03;5066214;28;20117;-66
2021/09/18 11:10:10;;;;;;;3.38;0.60;;;;;;;16.96;83.21;100815.69;5060904;28;20052;-68
2021/09/18 11:12:37;;;;;;;3.55;0.88;;;;;;;17.05;83.96;100816.75;5080597;28;20052;-67
2021/09/18 11:15:08;;;;;;;1.02;0.35;;;;;;;16.69;86.10;100830.22;5063655;28;20069;-66
2021/09/18 11:17:37;;;;;;;1.85;0.73;;;;;;;15.78;90.31;100842.84;5062404;28;20052;-70
2021/09/18 11:20:11;;;;;;;2.58;0.85;;;;;;;15.15;96.21;100847.59;5066565;28;20110;-70
2021/09/18 11:22:39;;;;;;;2.00;0.85;;;;;;;15.00;98.41;100846.94;5079794;28;20067;-67
2021/09/18 11:25:24;;;;;;;1.38;0.80;;;;;;;15.01;99.60;100845.13;5058627;28;20057;-67
2021/09/18 11:28:04;;;;;;;4.47;1.15;;;;;;;15.04;99.35;100855.47;5072160;28;20512;-67
2021/09/18 11:30:45;;;;;;;2.88;1.15;;;;;;;15.02;97.41;100860.91;5073823;28;20080;-68
2021/09/18 11:33:17;;;;;;;3.00;1.13;;;;;;;14.98;97.70;100853.28;5068768;28;20053;-68
2021/09/18 11:35:59;;;;;;;5.93;1.25;;;;;;;14.91;99.88;100858.22;5069286;28;20147;-67